Humidity-temperature Sensor

Selected Measurement Type: Air Temperature

 
Air Temperature [°C]     6 entries per hour
Showing data from 9/4/2017 (00:00:00 Z) to 8/28/2017 (00:01:00 Z)
Previous Next [ Day | 3-Days | 7-Days ]
First Last
Prev [ Day | 3-Days | 7-Days ] Next
First Last

Start Time:     :
End Time:     :     
Time (in GMT) :00 :50 :40 :30 :20 :10
Previous Next [ Day | 3-Days | 7-Days ]
First Last
Prev [ Day | 3-Days | 7-Days ] Next
First Last


123 => good data
MM => data is determined as missing
-- => data not received/configured
Back to Top Back to Top
9/4/2017 00:00 to 23:10 28.93 28.95 28.85 28.86 28.95 28.85
9/3/2017 23:00 to 22:10 28.88 28.77 28.76 28.72 28.75 28.77
9/3/2017 22:00 to 21:10 28.87 28.90 28.88 28.90 28.80 28.91
9/3/2017 21:00 to 20:10 28.89 28.90 28.91 28.90 28.86 28.95
9/3/2017 20:00 to 19:10 28.91 28.90 28.72 28.95 28.89 28.95
9/3/2017 19:00 to 18:10 29.01 29.05 29.08 29.05 29.00 28.88
9/3/2017 18:00 to 17:10 28.78 28.57 28.57 28.50 28.48 28.48
9/3/2017 17:00 to 16:10 28.44 28.32 28.22 28.23 28.40 28.39
9/3/2017 16:00 to 15:10 28.40 28.19 28.44 28.35 28.46 28.45
9/3/2017 15:00 to 14:10 28.30 28.39 28.38 28.51 28.55 28.50
9/3/2017 14:00 to 13:10 28.51 28.51 28.46 28.52 28.55 28.56
9/3/2017 13:00 to 12:10 28.55 28.64 28.53 28.57 28.55 28.59
9/3/2017 12:00 to 11:10 28.53 28.52 28.74 28.68 28.70 28.60
9/3/2017 11:00 to 10:10 28.63 28.65 28.68 28.67 28.72 28.71
9/3/2017 10:00 to 9:10 28.77 28.69 28.61 28.43 28.46 28.48
9/3/2017 09:00 to 8:10 28.48 28.48 28.38 28.41 28.31 28.22
9/3/2017 08:00 to 7:10 28.55 28.50 28.10 27.98 28.20 28.22
9/3/2017 07:00 to 6:10 28.39 28.62 28.47 28.51 28.46 28.55
9/3/2017 06:00 to 5:10 28.38 28.57 28.62 28.72 28.79 28.74
9/3/2017 05:00 to 4:10 28.76 28.78 28.91 29.03 28.90 29.12
9/3/2017 04:00 to 3:10 29.07 29.47 29.41 29.41 29.36 29.32
9/3/2017 03:00 to 2:10 29.35 28.92 28.88 28.92 28.94 28.89
9/3/2017 02:00 to 1:10 28.97 28.93 28.79 28.79 28.84 28.88
9/3/2017 01:00 to 0:10 28.86 28.83 28.52 28.31 28.10 27.97
9/3/2017 00:00 to 23:10 27.79 27.82 28.21 28.43 28.42 28.19
9/2/2017 23:00 to 22:10 28.18 28.16 28.17 27.98 28.16 27.88
9/2/2017 22:00 to 21:10 28.79 29.05 29.05 29.04 29.06 29.05
9/2/2017 21:00 to 20:10 29.08 29.01 28.91 28.82 28.78 28.79
9/2/2017 20:00 to 19:10 28.67 28.67 28.60 28.59 28.65 28.72
9/2/2017 19:00 to 18:10 28.72 28.63 28.56 28.67 28.52 28.52
9/2/2017 18:00 to 17:10 28.44 28.48 28.49 28.42 28.41 28.29
9/2/2017 17:00 to 16:10 28.34 28.31 28.26 28.09 27.89 28.16
9/2/2017 16:00 to 15:10 27.88 28.52 28.56 28.48 28.45 28.22
9/2/2017 15:00 to 14:10 28.50 28.47 28.46 28.40 28.37 28.25
9/2/2017 14:00 to 13:10 28.40 28.34 28.20 28.30 28.18 28.16
9/2/2017 13:00 to 12:10 28.13 28.09 28.17 28.14 28.10 28.22
9/2/2017 12:00 to 11:10 28.26 28.16 28.24 28.25 28.23 28.34
9/2/2017 11:00 to 10:10 28.39 28.44 28.36 28.41 28.33 28.33
9/2/2017 10:00 to 9:10 28.28 28.20 28.11 27.93 27.95 27.89
9/2/2017 09:00 to 8:10 27.78 28.08 28.06 27.99 27.92 28.02
9/2/2017 08:00 to 7:10 27.97 27.83 27.75 27.67 27.63 27.64
9/2/2017 07:00 to 6:10 27.73 27.49 27.42 27.31 27.43 27.25
9/2/2017 06:00 to 5:10 27.32 27.32 27.51 27.51 27.30 27.45
9/2/2017 05:00 to 4:10 27.35 27.30 27.24 27.30 27.33 27.33
9/2/2017 04:00 to 3:10 27.28 27.25 27.24 27.37 27.23 27.29
9/2/2017 03:00 to 2:10 27.45 27.44 27.69 27.54 27.76 27.78
9/2/2017 02:00 to 1:10 27.77 27.92 27.98 28.14 28.06 28.28
9/2/2017 01:00 to 0:10 28.21 28.07 28.06 28.16 27.73 27.35
9/2/2017 00:00 to 23:10 27.40 27.41 27.36 27.16 27.06 27.09
9/1/2017 23:00 to 22:10 27.03 27.09 26.85 27.04 26.71 26.78
9/1/2017 22:00 to 21:10 26.61 26.46 26.43 26.44 26.37 26.45
9/1/2017 21:00 to 20:10 26.50 26.55 26.39 26.27 26.00 26.03
9/1/2017 20:00 to 19:10 25.72 26.03 25.70 25.38 25.20 25.37
9/1/2017 19:00 to 18:10 25.33 25.34 25.49 25.71 25.94 26.15
9/1/2017 18:00 to 17:10 26.11 26.08 25.77 25.74 25.46 25.23
9/1/2017 17:00 to 16:10 24.89 25.32 25.13 24.96 24.83 24.55
9/1/2017 16:00 to 15:10 23.83 23.88 23.90 25.59 25.59 25.56
9/1/2017 15:00 to 14:10 25.98 26.71 26.79 26.74 26.93 26.95
9/1/2017 14:00 to 13:10 27.06 27.17 27.57 27.48 27.48 27.65
9/1/2017 13:00 to 12:10 27.44 27.44 27.43 27.76 27.74 27.63
9/1/2017 12:00 to 11:10 27.54 27.24 27.27 27.11 27.39 28.26
9/1/2017 11:00 to 10:10 28.53 28.28 28.23 28.16 28.06 28.01
9/1/2017 10:00 to 9:10 28.15 27.98 27.99 27.78 27.62 27.59
9/1/2017 09:00 to 8:10 27.37 27.03 26.99 26.97 26.89 26.71
9/1/2017 08:00 to 7:10 26.55 26.55 26.46 26.18 27.20 27.00
9/1/2017 07:00 to 6:10 26.87 27.12 27.34 27.16 27.56 27.21
9/1/2017 06:00 to 5:10 28.10 28.31 28.42 28.06 27.85 27.81
9/1/2017 05:00 to 4:10 27.61 28.04 27.99 28.15 28.34 28.65
9/1/2017 04:00 to 3:10 28.59 28.54 28.55 28.59 28.47 28.25
9/1/2017 03:00 to 2:10 28.36 28.50 28.59 28.96 28.71 28.69
9/1/2017 02:00 to 1:10 28.64 28.96 28.63 28.73 28.50 28.73
9/1/2017 01:00 to 0:10 28.82 28.77 28.26 27.71 27.35 26.92
9/1/2017 00:00 to 23:10 26.76 29.22 28.94 28.42 28.57 28.00
8/31/2017 23:00 to 22:10 27.99 28.68 29.34 29.20 29.14 29.11
8/31/2017 22:00 to 21:10 29.15 29.45 29.21 29.19 29.20 29.06
8/31/2017 21:00 to 20:10 28.87 28.68 28.69 28.64 28.37 28.74
8/31/2017 20:00 to 19:10 28.81 28.90 28.72 28.93 28.97 28.90
8/31/2017 19:00 to 18:10 29.33 29.23 29.18 29.09 29.16 28.78
8/31/2017 18:00 to 17:10 28.66 28.79 28.80 28.70 28.55 28.53
8/31/2017 17:00 to 16:10 28.44 28.30 28.58 28.16 27.90 27.80
8/31/2017 16:00 to 15:10 27.43 28.71 28.70 28.58 28.70 28.84
8/31/2017 15:00 to 14:10 29.12 29.07 28.91 28.94 28.78 28.74
8/31/2017 14:00 to 13:10 28.72 28.56 28.69 28.65 28.57 28.51
8/31/2017 13:00 to 12:10 28.44 28.77 28.77 28.77 28.80 28.76
8/31/2017 12:00 to 11:10 28.82 28.84 28.79 28.76 28.42 28.75
8/31/2017 11:00 to 10:10 28.92 29.06 28.95 29.01 28.96 28.91
8/31/2017 10:00 to 9:10 28.87 28.88 28.89 29.01 28.93 28.93
8/31/2017 09:00 to 8:10 28.91 28.97 28.95 28.88 28.90 28.94
8/31/2017 08:00 to 7:10 28.86 28.96 29.05 29.05 28.83 29.02
8/31/2017 07:00 to 6:10 29.01 28.94 29.02 28.98 28.96 29.09
8/31/2017 06:00 to 5:10 29.03 28.81 28.93 28.78 28.72 28.73
8/31/2017 05:00 to 4:10 28.78 29.20 29.17 29.14 29.05 29.34
8/31/2017 04:00 to 3:10 29.38 29.51 29.31 29.34 29.24 29.22
8/31/2017 03:00 to 2:10 29.27 29.13 28.83 28.25 28.65 29.02
8/31/2017 02:00 to 1:10 28.31 28.89 28.94 29.01 28.81 28.67
8/31/2017 01:00 to 0:10 28.37 28.17 27.91 27.79 27.59 27.81
8/31/2017 00:00 to 23:10 27.77 27.87 27.80 28.08 27.87 28.43
8/30/2017 23:00 to 22:10 28.70 28.75 29.39 29.05 29.23 29.11
8/30/2017 22:00 to 21:10 -- -- -- -- -- --
8/30/2017 21:00 to 20:10 29.00 29.10 29.03 29.06 28.98 28.96
8/30/2017 20:00 to 19:10 29.07 28.96 29.03 28.79 28.86 28.77
8/30/2017 19:00 to 18:10 29.06 29.00 28.76 28.78 28.47 28.50
8/30/2017 18:00 to 17:10 28.35 28.35 28.42 28.29 28.46 28.39
8/30/2017 17:00 to 16:10 28.32 28.39 28.42 28.38 28.50 28.33
8/30/2017 16:00 to 15:10 28.28 28.31 28.36 28.25 28.28 28.24
8/30/2017 15:00 to 14:10 28.21 28.19 28.14 28.17 28.15 28.15
8/30/2017 14:00 to 13:10 28.05 28.05 28.00 28.10 27.88 27.69
8/30/2017 13:00 to 12:10 27.36 27.13 26.94 26.97 26.78 26.72
8/30/2017 12:00 to 11:10 26.72 26.78 26.64 26.45 26.26 26.71
8/30/2017 11:00 to 10:10 27.12 27.39 27.77 27.59 27.46 27.76
8/30/2017 10:00 to 9:10 27.78 28.74 28.33 28.22 28.96 28.78
8/30/2017 09:00 to 8:10 28.37 28.93 28.81 29.00 28.99 28.87
8/30/2017 08:00 to 7:10 28.94 28.92 28.97 28.93 28.94 28.84
8/30/2017 07:00 to 6:10 28.86 28.88 28.88 28.82 29.05 28.90
8/30/2017 06:00 to 5:10 28.91 28.89 28.93 28.96 28.97 29.06
8/30/2017 05:00 to 4:10 28.97 29.00 28.97 29.02 29.33 29.25
8/30/2017 04:00 to 3:10 29.13 29.16 29.15 29.20 29.16 29.26
8/30/2017 03:00 to 2:10 29.30 29.28 29.48 29.17 29.34 29.44
8/30/2017 02:00 to 1:10 -- -- -- -- -- --
8/30/2017 01:00 to 0:10 29.23 29.22 29.38 29.00 28.90 28.86
8/30/2017 00:00 to 23:10 28.84 28.86 29.11 28.98 28.95 28.95
8/29/2017 23:00 to 22:10 28.97 28.98 29.07 29.22 29.51 29.37
8/29/2017 22:00 to 21:10 29.32 29.14 29.25 29.10 29.30 29.27
8/29/2017 21:00 to 20:10 29.09 29.19 29.29 29.12 29.12 29.29
8/29/2017 20:00 to 19:10 29.13 29.16 29.01 28.89 28.85 28.82
8/29/2017 19:00 to 18:10 29.05 29.00 28.89 28.87 28.83 28.90
8/29/2017 18:00 to 17:10 28.79 28.47 28.25 28.14 28.15 28.10
8/29/2017 17:00 to 16:10 28.06 28.05 28.06 28.00 28.09 28.01
8/29/2017 16:00 to 15:10 27.86 27.90 27.94 27.95 27.81 28.01
8/29/2017 15:00 to 14:10 27.89 27.79 27.89 27.86 27.87 27.85
8/29/2017 14:00 to 13:10 27.96 27.80 27.82 27.88 27.86 27.84
8/29/2017 13:00 to 12:10 27.86 27.82 27.99 27.82 27.95 27.86
8/29/2017 12:00 to 11:10 28.03 27.95 27.95 27.95 27.90 28.13
8/29/2017 11:00 to 10:10 28.04 28.05 28.04 28.10 28.13 28.10
8/29/2017 10:00 to 9:10 28.07 28.11 28.05 28.12 28.08 28.03
8/29/2017 09:00 to 8:10 28.22 27.95 28.11 28.03 27.95 28.03
8/29/2017 08:00 to 7:10 -- -- -- -- -- --
8/29/2017 07:00 to 6:10 27.69 27.74 27.68 27.74 27.57 27.50
8/29/2017 06:00 to 5:10 27.46 27.44 27.32 27.27 27.25 27.07
8/29/2017 05:00 to 4:10 27.05 26.92 26.89 26.73 26.64 26.74
8/29/2017 04:00 to 3:10 26.56 26.46 26.30 26.30 26.29 26.05
8/29/2017 03:00 to 2:10 26.08 25.99 25.74 25.70 25.64 25.46
8/29/2017 02:00 to 1:10 25.24 25.28 25.10 24.80 24.72 24.55
8/29/2017 01:00 to 0:10 24.44 24.35 24.16 24.05 24.20 23.84
8/29/2017 00:00 to 23:10 23.70 24.13 24.24 24.50 24.66 24.57
8/28/2017 23:00 to 22:10 24.45 24.47 24.60 24.58 24.54 24.56
8/28/2017 22:00 to 21:10 24.77 24.56 24.47 24.43 24.31 24.37
8/28/2017 21:00 to 20:10 24.13 24.24 24.51 24.48 24.57 24.29
8/28/2017 20:00 to 19:10 24.25 24.43 24.02 24.49 24.86 24.73
8/28/2017 19:00 to 18:10 24.78 24.89 24.72 24.61 24.12 24.54
8/28/2017 18:00 to 17:10 24.76 24.66 25.33 25.71 25.77 25.93
8/28/2017 17:00 to 16:10 25.80 25.80 26.06 26.29 26.41 26.41
8/28/2017 16:00 to 15:10 26.60 26.52 26.33 26.11 25.73 25.43
8/28/2017 15:00 to 14:10 25.09 25.21 25.18 25.91 25.62 25.46
8/28/2017 14:00 to 13:10 25.09 24.97 25.43 25.24 25.38 26.38
8/28/2017 13:00 to 12:10 26.78 28.02 28.09 28.36 28.44 28.38
8/28/2017 12:00 to 11:10 28.29 28.18 28.52 28.78 28.81 28.92
8/28/2017 11:00 to 10:10 28.90 28.86 29.02 29.02 29.00 28.98
8/28/2017 10:00 to 9:10 29.00 29.05 29.07 29.04 29.08 29.02
8/28/2017 09:00 to 8:10 28.99 28.99 29.00 29.01 29.06 29.12
8/28/2017 08:00 to 7:10 29.02 29.04 28.98 29.01 29.07 29.11
8/28/2017 07:00 to 6:10 29.16 29.16 29.05 29.04 29.06 29.06
8/28/2017 06:00 to 5:10 29.01 29.10 29.08 29.12 29.21 29.49
8/28/2017 05:00 to 4:10 29.33 29.67 29.68 29.66 29.79 29.26
8/28/2017 04:00 to 3:10 29.12 29.45 29.87 29.22 29.41 29.75
8/28/2017 03:00 to 2:10 29.47 29.82 29.80 29.84 29.64 29.69
8/28/2017 02:00 to 1:10 29.57 29.49 29.35 29.42 29.30 29.31
8/28/2017 01:00 to 0:10 29.29 29.21 29.10 29.14 29.24 29.16